KBLM/BLM METAR and TAF weather

Enter ICAO airport designator
Station Type Date Time Source
KBLM METAR 2019/04/19 22:56 UTC NOAA

KBLM 192256Z AUTO 18014G21KT 10SM OVC020 21/17 A2978 RMK AO2 SLP087 T02060172


Station Type Date Time Source
KBLM Decoded METAR 2019/04/19 22:56 UTC NOAA

Belmar-Farmingdale, NJ, United States (KBLM) 40-11N 074-08W
Apr 19, 2019 - 06:56 PM EDT / 2019.04.19 2256 UTC
Wind: from the S (180 degrees) at 16 MPH (14 KT) gusting to 24 MPH (21 KT):0
Visibility: 10 mile(s):0
Sky conditions: overcast
Temperature: 69.1 F (20.6 C)
Dew Point: 63.0 F (17.2 C)
Relative Humidity: 80%
Pressure (altimeter): 29.78 in. Hg (1008 hPa)
ob: KBLM 192256Z AUTO 18014G21KT 10SM OVC020 21/17 A2978 RMK AO2 SLP087 T02060172
cycle: 23

Station Type Date Time Source
KBLM TAF UTC NOAA

Error!

Example: see airport list